Time;durP1;ratioP1;P1;durP2;ratioP2;P2;SDS_P1;SDS_P2;PMS_P1;PMS_P2;Temp;Humidity;BMP_temperature;BMP_pressure;BME280_temperature;BME280_humidity;BME280_pressure;Samples;Min_cycle;Max_cycle;Signal;HPM_P1;HPM_P2
2023/08/24 00:00:45;;;;;;;12.30;5.90;;;;;;;20.99;50.89;100239.40;108099;1254;70586;-68
2023/08/24 00:03:12;;;;;;;10.30;5.20;;;;;;;20.87;50.95;100240.35;108106;1254;60730;-67
2023/08/24 00:05:40;;;;;;;15.10;6.90;;;;;;;20.86;51.29;100244.55;108193;1254;60239;-67
2023/08/24 00:08:08;;;;;;;8.90;5.80;;;;;;;20.86;51.06;100245.98;108133;1253;73766;-67
2023/08/24 00:10:35;;;;;;;7.90;5.10;;;;;;;20.88;51.06;100247.37;108160;1254;70143;-67
2023/08/24 00:13:03;;;;;;;9.50;5.70;;;;;;;20.93;51.12;100249.52;108030;1254;72701;-68
2023/08/24 00:15:30;;;;;;;8.30;5.60;;;;;;;21.11;50.49;100249.13;108091;1254;63652;-67
2023/08/24 00:17:58;;;;;;;8.60;6.10;;;;;;;21.08;50.61;100248.80;108107;1256;60415;-67
2023/08/24 00:20:27;;;;;;;10.10;6.20;;;;;;;20.96;50.86;100250.92;108124;1253;71519;-67
2023/08/24 00:22:54;;;;;;;9.10;6.10;;;;;;;20.73;51.23;100246.63;108136;1253;68752;-67
2023/08/24 00:25:21;;;;;;;8.90;5.70;;;;;;;20.70;51.10;100242.88;108237;1251;71368;-65
2023/08/24 00:27:49;;;;;;;10.70;5.80;;;;;;;20.60;51.50;100244.52;108225;1253;60689;-67
2023/08/24 00:30:17;;;;;;;7.90;5.00;;;;;;;20.58;51.82;100242.42;108171;1251;60373;-68
2023/08/24 00:32:44;;;;;;;14.10;6.40;;;;;;;20.55;52.00;100242.59;108213;1251;73824;-66
2023/08/24 00:35:12;;;;;;;10.40;6.10;;;;;;;20.49;52.06;100238.41;108250;1254;69543;-67
2023/08/24 00:37:39;;;;;;;10.10;6.20;;;;;;;20.52;51.66;100237.98;108202;1254;73186;-67
2023/08/24 00:40:09;;;;;;;10.60;6.30;;;;;;;20.17;52.32;100237.82;108289;1251;61802;-67
2023/08/24 00:42:40;;;;;;;10.80;5.40;;;;;;;20.29;52.31;100236.70;108111;1251;60396;-67
2023/08/24 00:45:11;;;;;;;11.70;5.90;;;;;;;20.17;52.82;100236.56;108308;1256;73891;-67
2023/08/24 00:47:40;;;;;;;10.60;6.10;;;;;;;20.01;53.16;100239.36;108275;1251;69529;-65
2023/08/24 00:50:08;;;;;;;8.30;5.70;;;;;;;19.88;53.65;100238.73;108287;1251;72441;-66
2023/08/24 00:52:40;;;;;;;10.20;6.30;;;;;;;19.87;53.53;100240.41;108180;1251;61694;-67
2023/08/24 00:55:08;;;;;;;8.80;5.70;;;;;;;20.27;52.71;100238.84;108276;1251;60315;-66
2023/08/24 00:57:36;;;;;;;10.60;6.20;;;;;;;20.39;52.65;100234.31;108266;1256;73787;-66
2023/08/24 01:00:05;;;;;;;9.50;6.60;;;;;;;20.17;52.93;100237.25;108258;1251;69964;-68
2023/08/24 01:02:34;;;;;;;11.20;6.50;;;;;;;20.06;52.84;100238.31;108305;1256;73222;-69
2023/08/24 01:05:04;;;;;;;8.90;6.30;;;;;;;20.02;53.04;100236.27;108260;1251;61859;-67
2023/08/24 01:07:36;;;;;;;10.40;5.50;;;;;;;19.91;53.16;100234.97;108179;1251;60357;-67
2023/08/24 01:10:06;;;;;;;9.10;5.80;;;;;;;19.77;53.99;100231.71;108340;1251;72515;-66
2023/08/24 01:13:09;;;;;;;10.50;6.30;;;;;;;19.98;53.43;100235.14;108299;1251;70180;-68
2023/08/24 01:15:55;;;;;;;11.50;6.40;;;;;;;19.96;53.28;100235.80;107974;1251;72721;-68
2023/08/24 01:18:22;;;;;;;11.30;5.50;;;;;;;20.23;52.96;100233.95;108328;1251;60337;-67
2023/08/24 01:20:52;;;;;;;10.20;6.70;;;;;;;20.28;52.70;100231.08;108108;1251;60409;-69
2023/08/24 01:23:20;;;;;;;8.80;5.50;;;;;;;20.11;52.99;100234.02;108173;1257;73831;-67
2023/08/24 01:26:04;;;;;;;9.90;6.00;;;;;;;20.12;53.16;100234.30;108078;1254;69307;-68
2023/08/24 01:28:32;;;;;;;11.90;6.30;;;;;;;20.03;52.95;100235.48;107965;1253;72672;-68
2023/08/24 01:30:59;;;;;;;8.50;5.70;;;;;;;19.99;52.75;100237.40;107864;1260;60674;-68
2023/08/24 01:33:27;;;;;;;11.10;6.40;;;;;;;19.85;53.28;100231.94;108073;1254;60376;-67
2023/08/24 01:35:54;;;;;;;10.60;6.80;;;;;;;19.94;52.94;100234.02;108077;1254;73857;-66
2023/08/24 01:38:22;;;;;;;11.90;6.30;;;;;;;20.05;52.62;100234.13;108106;1253;70378;-67
2023/08/24 01:41:10;;;;;;;11.10;6.20;;;;;;;19.98;52.60;100237.13;108042;1257;72654;-67
2023/08/24 01:43:39;;;;;;;11.70;7.10;;;;;;;19.58;53.56;100237.92;108009;1254;61753;-67
2023/08/24 01:46:13;;;;;;;11.20;6.00;;;;;;;19.75;53.57;100235.27;108032;1254;60402;-67
2023/08/24 01:48:40;;;;;;;10.00;6.70;;;;;;;19.69;53.62;100235.86;108158;1253;72577;-67
2023/08/24 01:51:10;;;;;;;9.40;5.40;;;;;;;19.55;54.07;100236.16;108032;1254;68773;-66
2023/08/24 01:53:38;;;;;;;10.90;6.50;;;;;;;19.47;54.30;100237.77;108063;1254;71383;-67
2023/08/24 01:56:12;;;;;;;8.90;6.10;;;;;;;19.43;54.41;100238.73;108173;1252;61665;-66
2023/08/24 01:58:40;;;;;;;9.70;6.40;;;;;;;19.42;54.34;100240.80;108009;1254;60347;-67
2023/08/24 02:01:12;;;;;;;10.50;6.60;;;;;;;19.44;54.40;100242.77;108041;1254;73162;-67
2023/08/24 02:03:40;;;;;;;10.30;6.00;;;;;;;19.42;54.29;100244.19;108087;1254;68859;-67
2023/08/24 02:06:08;;;;;;;10.00;6.10;;;;;;;19.52;53.94;100241.48;108196;1254;71093;-68
2023/08/24 02:08:37;;;;;;;13.60;6.30;;;;;;;19.44;54.00;100240.86;108075;1254;60475;-68
2023/08/24 02:11:05;;;;;;;8.70;6.50;;;;;;;19.31;54.23;100243.93;108160;1254;60731;-67
2023/08/24 02:13:33;;;;;;;10.80;7.00;;;;;;;19.19;54.66;100247.40;107999;1254;71664;-67
2023/08/24 02:16:05;;;;;;;11.80;7.20;;;;;;;19.11;54.86;100250.84;108042;1254;70054;-67
2023/08/24 02:18:33;;;;;;;10.10;6.30;;;;;;;19.02;55.08;100249.48;108076;1254;72686;-67
2023/08/24 02:21:07;;;;;;;12.20;7.30;;;;;;;19.02;55.24;100249.33;107993;1257;61825;-66
2023/08/24 02:23:34;;;;;;;9.10;6.50;;;;;;;19.01;55.17;100245.85;108190;1254;60276;-65
2023/08/24 02:26:03;;;;;;;13.20;6.50;;;;;;;18.95;55.50;100248.73;108125;1253;72885;-68
2023/08/24 02:28:30;;;;;;;8.80;6.50;;;;;;;19.05;55.32;100244.48;108201;1253;70136;-66
2023/08/24 02:31:02;;;;;;;12.10;6.50;;;;;;;19.05;55.44;100247.55;108030;1254;72940;-65
2023/08/24 02:33:30;;;;;;;10.40;6.60;;;;;;;19.09;55.34;100248.16;108201;1252;61716;-69
2023/08/24 02:35:57;;;;;;;8.60;6.20;;;;;;;19.10;55.05;100245.76;108233;1253;60298;-68
2023/08/24 02:38:24;;;;;;;10.60;6.40;;;;;;;19.07;55.26;100244.34;108194;1254;72548;-66
2023/08/24 02:41:05;;;;;;;11.20;6.90;;;;;;;19.02;55.30;100248.29;108089;1253;70485;-66
2023/08/24 02:43:33;;;;;;;15.30;6.80;;;;;;;19.00;55.34;100247.73;108130;1253;72670;-67
2023/08/24 02:46:06;;;;;;;11.30;6.50;;;;;;;19.06;55.18;100246.73;108095;1254;60490;-66
2023/08/24 02:48:33;;;;;;;9.80;6.80;;;;;;;18.90;55.25;100247.52;108150;1253;60357;-66
2023/08/24 02:51:03;;;;;;;11.00;6.80;;;;;;;18.67;56.02;100253.19;108175;1252;72924;-68
2023/08/24 02:53:31;;;;;;;10.40;6.90;;;;;;;18.81;56.03;100253.87;108153;1254;69301;-67
2023/08/24 02:56:00;;;;;;;13.20;7.10;;;;;;;18.78;56.05;100252.65;108184;1254;71142;-67
2023/08/24 02:58:28;;;;;;;8.00;6.00;;;;;;;18.77;56.23;100257.32;108112;1254;61707;-68
2023/08/24 03:00:55;;;;;;;10.40;6.70;;;;;;;18.58;56.82;100258.25;108130;1253;59987;-66
2023/08/24 03:03:26;;;;;;;13.80;6.80;;;;;;;18.72;56.44;100256.94;108177;1252;73939;-66
2023/08/24 03:06:02;;;;;;;12.90;6.80;;;;;;;18.43;57.03;100259.96;108134;1252;69154;-66
2023/08/24 03:08:31;;;;;;;11.50;6.80;;;;;;;18.74;56.26;100265.34;108201;1254;71822;-66
2023/08/24 03:10:59;;;;;;;9.60;6.80;;;;;;;18.76;56.46;100259.88;108144;1253;60963;-68
2023/08/24 03:13:27;;;;;;;11.40;6.10;;;;;;;18.70;56.57;100256.54;108184;1252;60232;-66
2023/08/24 03:15:55;;;;;;;10.80;6.90;;;;;;;18.79;56.26;100256.48;108113;1252;73142;-66
2023/08/24 03:18:27;;;;;;;8.90;6.40;;;;;;;18.91;56.17;100255.09;108083;1253;70271;-67
2023/08/24 03:20:55;;;;;;;11.30;7.20;;;;;;;18.80;56.39;100253.92;108059;1253;71473;-66
2023/08/24 03:23:22;;;;;;;11.70;6.80;;;;;;;18.71;56.75;100252.00;108146;1253;61701;-66
2023/08/24 03:25:49;;;;;;;10.70;6.30;;;;;;;19.16;56.38;100249.27;108146;1254;60620;-66
2023/08/24 03:28:17;;;;;;;10.90;6.10;;;;;;;19.69;55.38;100246.69;108193;1254;74031;-66
2023/08/24 03:30:49;;;;;;;8.90;6.10;;;;;;;19.87;55.07;100250.05;108209;1253;68659;-67
2023/08/24 03:33:17;;;;;;;12.00;6.00;;;;;;;20.21;54.70;100250.67;108089;1254;71313;-66
2023/08/24 03:35:44;;;;;;;10.50;6.00;;;;;;;20.65;53.55;100250.73;108200;1254;60383;-67
2023/08/24 03:38:12;;;;;;;8.50;5.40;;;;;;;20.92;53.05;100254.19;108051;1256;59003;-67
2023/08/24 03:40:39;;;;;;;14.10;6.00;;;;;;;20.91;52.99;100251.75;108156;1253;74384;-67
2023/08/24 03:43:06;;;;;;;11.30;4.90;;;;;;;21.21;52.26;100251.08;108163;1254;68080;-67
2023/08/24 03:45:34;;;;;;;11.30;5.40;;;;;;;21.75;51.02;100250.88;108143;1254;72469;-67
2023/08/24 03:48:03;;;;;;;12.00;5.40;;;;;;;21.95;50.45;100248.11;108126;1253;60750;-68
2023/08/24 03:50:31;;;;;;;6.30;4.60;;;;;;;22.21;49.96;100251.98;108022;1253;60017;-66
2023/08/24 03:52:58;;;;;;;8.70;4.10;;;;;;;22.71;49.30;100254.08;108177;1254;73781;-67
2023/08/24 03:55:26;;;;;;;7.90;5.00;;;;;;;23.30;47.83;100253.42;108120;1252;69059;-67
2023/08/24 03:57:54;;;;;;;8.30;4.50;;;;;;;23.45;47.44;100259.11;108131;1254;73602;-66
2023/08/24 04:00:26;;;;;;;9.90;4.80;;;;;;;23.85;46.76;100263.12;108180;1253;60739;-68
2023/08/24 04:02:53;;;;;;;7.50;4.70;;;;;;;24.33;45.40;100261.20;108135;1253;60325;-68
2023/08/24 04:05:23;;;;;;;6.30;4.20;;;;;;;24.82;44.59;100264.34;108075;1259;72821;-68
2023/08/24 04:07:50;;;;;;;6.60;4.20;;;;;;;25.01;44.19;100262.41;108191;1254;69048;-68
2023/08/24 04:10:18;;;;;;;9.40;4.10;;;;;;;25.54;43.29;100265.40;108086;1253;71700;-67
2023/08/24 04:12:46;;;;;;;6.70;4.40;;;;;;;25.88;42.81;100264.15;108142;1256;60554;-69
2023/08/24 04:15:13;;;;;;;10.50;4.10;;;;;;;25.91;42.66;100263.17;108190;1252;60069;-67
2023/08/24 04:17:41;;;;;;;7.50;4.00;;;;;;;26.18;42.04;100255.30;108125;1253;73939;-68
2023/08/24 04:20:11;;;;;;;5.80;4.30;;;;;;;26.59;41.34;100255.79;108171;1253;69216;-66
2023/08/24 04:22:38;;;;;;;6.40;4.20;;;;;;;26.96;40.71;100255.39;108135;1253;71110;-67
2023/08/24 04:25:06;;;;;;;5.50;3.80;;;;;;;27.33;40.17;100258.27;108039;1253;60396;-67
2023/08/24 04:27:34;;;;;;;6.90;4.00;;;;;;;27.85;39.14;100254.69;108341;1251;60348;-67
2023/08/24 04:30:01;;;;;;;5.70;4.00;;;;;;;28.35;38.24;100253.98;108196;1253;72632;-67
2023/08/24 04:32:28;;;;;;;6.80;3.50;;;;;;;28.76;37.43;100250.94;108074;1256;69222;-66
2023/08/24 04:34:56;;;;;;;6.10;3.30;;;;;;;28.93;37.10;100254.73;108013;1254;71743;-67
2023/08/24 04:37:23;;;;;;;7.20;4.20;;;;;;;29.33;36.46;100255.66;108027;1254;60182;-66
2023/08/24 04:39:51;;;;;;;6.40;3.70;;;;;;;29.75;35.76;100252.55;108098;1254;60437;-66
2023/08/24 04:42:18;;;;;;;9.70;4.00;;;;;;;30.11;35.25;100250.95;107969;1254;72612;-67
2023/08/24 04:44:45;;;;;;;11.80;3.70;;;;;;;30.39;34.98;100249.30;108043;1254;68969;-68
2023/08/24 04:47:13;;;;;;;13.40;3.90;;;;;;;30.67;34.67;100246.41;108029;1254;72094;-67
2023/08/24 04:49:40;;;;;;;16.10;3.60;;;;;;;31.06;34.00;100248.34;108053;1253;60402;-68
2023/08/24 04:52:08;;;;;;;8.10;3.30;;;;;;;31.46;33.56;100246.87;108113;1257;60362;-69
2023/08/24 04:54:35;;;;;;;9.00;3.20;;;;;;;31.88;33.02;100244.77;108110;1253;74385;-69
2023/08/24 04:57:04;;;;;;;12.80;3.50;;;;;;;32.28;32.71;100239.20;108160;1257;69961;-67
2023/08/24 04:59:32;;;;;;;10.10;3.40;;;;;;;32.62;32.44;100240.89;108125;1254;72778;-70
2023/08/24 05:01:59;;;;;;;7.40;3.20;;;;;;;33.05;31.74;100241.27;108066;1252;60086;-68
2023/08/24 05:04:27;;;;;;;17.00;3.40;;;;;;;33.53;30.91;100242.63;108047;1253;60299;-69
2023/08/24 05:06:54;;;;;;;6.10;3.30;;;;;;;33.83;30.76;100244.93;108066;1254;63623;-69
2023/08/24 05:09:22;;;;;;;6.90;2.90;;;;;;;34.02;30.52;100245.73;108108;1252;70108;-69
2023/08/24 05:11:50;;;;;;;10.40;3.00;;;;;;;34.28;30.08;100245.91;108037;1253;63700;-69
2023/08/24 05:14:17;;;;;;;8.60;3.00;;;;;;;34.40;29.79;100247.67;108033;1254;60460;-69
2023/08/24 05:16:45;;;;;;;5.10;2.70;;;;;;;34.65;29.44;100247.43;108033;1253;60408;-67
2023/08/24 05:19:12;;;;;;;7.10;2.60;;;;;;;35.13;28.91;100250.02;108148;1254;65023;-68
2023/08/24 05:21:40;;;;;;;5.10;2.00;;;;;;;35.55;28.30;100252.04;108057;1253;60220;-68
2023/08/24 05:24:07;;;;;;;4.90;2.10;;;;;;;35.81;27.92;100249.69;107982;1254;63714;-69
2023/08/24 05:26:35;;;;;;;4.70;2.00;;;;;;;36.23;27.14;100246.73;108249;1251;60453;-69
2023/08/24 05:29:03;;;;;;;4.10;1.70;;;;;;;36.57;26.94;100241.28;108202;1251;60308;-69
2023/08/24 05:31:30;;;;;;;6.90;2.30;;;;;;;36.80;26.41;100243.23;108261;1251;64394;-70
2023/08/24 05:33:58;;;;;;;5.70;1.60;;;;;;;37.12;25.89;100239.56;108331;1251;61367;-68
2023/08/24 05:36:25;;;;;;;6.10;2.10;;;;;;;37.25;25.89;100241.84;108365;1253;62438;-69
2023/08/24 05:38:55;;;;;;;8.00;1.80;;;;;;;37.61;25.31;100243.30;108438;1251;59275;-69
2023/08/24 05:43:44;;;;;;;6.80;1.80;;;;;;;36.84;26.19;100238.70;104713;1291;603430;-69
2023/08/24 05:46:11;;;;;;;3.80;1.60;;;;;;;38.12;24.21;100242.00;107439;1263;59225;-69
2023/08/24 05:48:37;;;;;;;2.70;1.40;;;;;;;38.39;23.90;100242.04;107489;1264;59784;-69
2023/08/24 05:51:06;;;;;;;5.30;1.70;;;;;;;38.64;23.70;100242.83;107500;1262;59117;-69
2023/08/24 05:53:32;;;;;;;6.70;1.70;;;;;;;38.78;23.49;100237.36;107595;1264;61784;-70
2023/08/24 05:55:59;;;;;;;5.60;1.50;;;;;;;39.01;22.92;100235.50;107355;1266;192683;-70
2023/08/24 05:58:26;;;;;;;6.60;2.00;;;;;;;39.22;22.70;100233.30;108065;1260;59118;-68
2023/08/24 06:00:57;;;;;;;5.10;1.60;;;;;;;39.11;22.32;100231.36;108012;1256;59203;-70
2023/08/24 06:03:25;;;;;;;2.40;1.40;;;;;;;39.20;22.19;100230.40;107948;1255;63457;-71
2023/08/24 06:05:52;;;;;;;2.50;0.90;;;;;;;39.48;21.73;100228.66;108078;1255;61494;-68
2023/08/24 06:08:19;;;;;;;1.90;1.10;;;;;;;39.57;21.31;100228.52;108044;1260;64751;-68
2023/08/24 06:10:45;;;;;;;3.40;1.40;;;;;;;39.46;21.41;100224.02;108114;1256;59541;-68
2023/08/24 06:13:14;;;;;;;2.00;1.00;;;;;;;39.59;21.50;100223.42;108177;1260;59109;-69
2023/08/24 06:15:42;;;;;;;2.40;0.90;;;;;;;39.97;20.58;100222.61;108522;1257;62998;-70
2023/08/24 06:18:09;;;;;;;2.90;1.20;;;;;;;40.29;19.77;100220.54;108140;1256;61662;-69
2023/08/24 06:20:35;;;;;;;2.20;1.10;;;;;;;40.22;19.53;100221.61;108078;1257;62616;-70
2023/08/24 06:23:02;;;;;;;2.10;1.10;;;;;;;40.26;19.70;100223.69;107864;1256;59510;-69
2023/08/24 06:25:29;;;;;;;1.80;0.90;;;;;;;40.41;19.33;100224.33;107978;1257;59525;-70
2023/08/24 06:27:56;;;;;;;4.00;1.10;;;;;;;40.54;19.36;100226.58;107879;1257;64275;-69
2023/08/24 06:30:22;;;;;;;3.80;1.00;;;;;;;40.77;19.00;100221.07;107847;1257;61531;-69
2023/08/24 06:32:49;;;;;;;3.50;1.10;;;;;;;41.00;18.87;100225.98;107853;1257;63788;-70
2023/08/24 06:35:16;;;;;;;4.10;1.00;;;;;;;41.14;18.62;100230.82;107797;1261;59553;-69
2023/08/24 06:37:43;;;;;;;2.40;1.10;;;;;;;41.33;18.48;100226.25;107807;1257;59691;-70
2023/08/24 06:40:11;;;;;;;2.20;1.00;;;;;;;41.28;18.20;100224.33;107809;1257;64196;-69
2023/08/24 06:42:37;;;;;;;2.60;1.10;;;;;;;41.50;17.95;100227.02;107876;1257;60445;-69
2023/08/24 06:45:04;;;;;;;2.70;1.20;;;;;;;41.79;18.07;100230.16;107807;1257;63955;-70
2023/08/24 06:47:32;;;;;;;1.70;1.00;;;;;;;41.51;18.15;100226.58;107820;1257;59598;-70
2023/08/24 06:50:00;;;;;;;3.30;1.20;;;;;;;41.45;18.39;100231.30;107790;1257;59541;-69
2023/08/24 06:52:26;;;;;;;5.30;1.20;;;;;;;41.66;17.68;100235.33;107760;1257;64191;-69
2023/08/24 06:54:55;;;;;;;2.40;1.20;;;;;;;41.68;17.69;100238.01;107775;1262;61581;-69
2023/08/24 06:57:22;;;;;;;2.80;1.20;;;;;;;41.54;17.74;100237.01;107716;1257;63796;-68
2023/08/24 06:59:49;;;;;;;3.10;1.40;;;;;;;41.52;17.89;100243.95;107759;1257;59490;-70
2023/08/24 07:02:17;;;;;;;3.30;1.20;;;;;;;41.72;17.46;100244.67;107799;1257;59096;-70
2023/08/24 07:04:44;;;;;;;2.20;1.30;;;;;;;41.81;17.36;100244.22;107800;1257;64419;-69
2023/08/24 07:07:11;;;;;;;2.60;1.10;;;;;;;41.69;17.51;100243.76;107818;1257;61387;-68
2023/08/24 07:09:38;;;;;;;2.90;1.30;;;;;;;41.37;17.01;100246.20;107731;1257;64958;-70
2023/08/24 07:12:06;;;;;;;3.00;1.30;;;;;;;41.34;16.73;100246.00;107753;1257;59346;-69
2023/08/24 07:14:33;;;;;;;2.60;1.30;;;;;;;41.37;16.79;100247.31;107741;1257;59429;-69
2023/08/24 07:17:00;;;;;;;4.70;1.10;;;;;;;41.48;17.02;100246.39;107744;1257;65745;-70
2023/08/24 07:19:27;;;;;;;2.60;1.20;;;;;;;41.60;17.22;100247.09;107804;1257;61653;-70
2023/08/24 07:21:53;;;;;;;4.70;1.10;;;;;;;41.61;17.06;100244.66;107766;1257;63961;-70
2023/08/24 07:24:20;;;;;;;3.90;1.10;;;;;;;41.50;16.99;100243.27;107734;1262;59198;-69
2023/08/24 07:27:01;;;;;;;3.60;1.10;;;;;;;41.56;16.41;100245.94;107699;1260;59129;-70
2023/08/24 07:29:27;;;;;;;3.70;1.30;;;;;;;41.93;16.62;100245.02;107669;1259;64400;-69
2023/08/24 07:31:54;;;;;;;2.90;1.20;;;;;;;41.89;16.58;100246.53;107652;1260;63032;-70
2023/08/24 07:34:24;;;;;;;5.70;1.40;;;;;;;41.36;17.04;100247.77;107680;1260;63941;-69
2023/08/24 07:36:53;;;;;;;5.40;1.30;;;;;;;41.58;16.97;100247.40;107662;1259;59526;-69
2023/08/24 07:39:20;;;;;;;3.00;1.30;;;;;;;41.94;16.96;100254.27;107700;1259;59628;-69
2023/08/24 07:41:46;;;;;;;3.60;1.50;;;;;;;42.13;16.69;100255.06;107689;1260;59624;-69
2023/08/24 07:44:13;;;;;;;2.90;1.40;;;;;;;42.16;16.74;100255.98;107726;1260;61735;-69
2023/08/24 07:46:41;;;;;;;2.80;1.20;;;;;;;42.08;16.20;100255.90;108094;1253;62798;-70
2023/08/24 07:49:07;;;;;;;5.60;1.50;;;;;;;41.75;16.55;100254.51;108119;1253;59525;-69
2023/08/24 07:51:34;;;;;;;2.80;1.30;;;;;;;41.79;16.76;100254.44;108039;1254;59630;-68
2023/08/24 07:54:00;;;;;;;6.70;1.40;;;;;;;41.69;16.76;100250.95;108114;1253;64349;-70
2023/08/24 07:56:27;;;;;;;4.70;1.40;;;;;;;41.96;16.48;100252.86;108106;1253;61466;-69
2023/08/24 07:58:54;;;;;;;5.30;1.40;;;;;;;41.87;15.87;100252.09;108063;1253;72377;-69
2023/08/24 08:01:21;;;;;;;3.40;1.50;;;;;;;41.97;16.32;100251.52;108074;1253;59463;-70
2023/08/24 08:03:48;;;;;;;3.60;1.80;;;;;;;41.70;16.81;100246.98;108123;1253;59984;-70
2023/08/24 08:06:15;;;;;;;4.60;1.80;;;;;;;41.83;16.39;100247.19;108035;1254;64357;-69
2023/08/24 08:08:41;;;;;;;3.70;1.50;;;;;;;42.05;16.16;100248.91;108013;1253;61502;-70
2023/08/24 08:11:08;;;;;;;3.00;1.50;;;;;;;41.99;16.59;100248.00;108002;1253;63765;-70
2023/08/24 08:13:34;;;;;;;4.00;1.50;;;;;;;41.54;16.72;100246.79;108018;1253;59728;-70
2023/08/24 08:16:05;;;;;;;3.10;1.30;;;;;;;40.72;17.28;100242.80;108053;1254;59497;-68
2023/08/24 08:18:32;;;;;;;;;;;;;;;40.10;17.63;100240.23;108019;1258;63736;-70
2023/08/24 08:20:58;;;;;;;3.10;1.50;;;;;;;39.83;18.03;100239.92;108086;1253;60345;-70
2023/08/24 08:23:25;;;;;;;4.80;1.70;;;;;;;39.81;18.10;100237.70;108032;1253;62467;-68
2023/08/24 08:25:51;;;;;;;5.10;1.40;;;;;;;40.03;18.00;100237.38;108035;1253;60180;-70
2023/08/24 08:28:18;;;;;;;5.20;1.60;;;;;;;40.08;17.65;100236.92;108074;1257;59025;-69
2023/08/24 08:30:45;;;;;;;2.40;1.30;;;;;;;40.12;17.76;100236.27;108132;1253;64465;-70
2023/08/24 08:33:12;;;;;;;3.70;1.60;;;;;;;40.42;17.89;100234.14;108108;1253;61387;-69
2023/08/24 08:35:39;;;;;;;5.50;1.70;;;;;;;40.45;17.83;100235.86;108104;1254;63712;-69
2023/08/24 08:38:06;;;;;;;3.70;1.40;;;;;;;40.78;17.01;100233.94;108098;1253;59625;-69
2023/08/24 08:40:33;;;;;;;2.80;1.30;;;;;;;40.83;16.72;100236.33;108066;1253;59525;-70
2023/08/24 08:42:59;;;;;;;3.00;1.10;;;;;;;40.79;16.69;100237.29;108024;1254;64318;-70
2023/08/24 08:45:26;;;;;;;2.10;1.20;;;;;;;41.06;16.62;100238.95;108086;1254;59395;-69
2023/08/24 08:47:56;;;;;;;4.70;1.20;;;;;;;41.71;15.94;100240.30;108153;1256;62807;-70
2023/08/24 08:50:23;;;;;;;3.50;1.40;;;;;;;41.98;15.69;100244.08;108249;1254;59109;-70
2023/08/24 08:52:49;;;;;;;7.00;1.30;;;;;;;42.00;15.48;100240.78;108114;1253;59413;-70
2023/08/24 08:55:16;;;;;;;4.10;1.30;;;;;;;42.10;15.35;100238.39;108207;1254;59615;-70
2023/08/24 08:57:43;;;;;;;4.60;1.30;;;;;;;42.22;15.22;100237.66;108216;1254;61696;-70
2023/08/24 09:00:13;;;;;;;2.80;1.30;;;;;;;41.95;14.81;100229.82;107988;1254;62795;-68
2023/08/24 09:02:40;;;;;;;2.80;1.10;;;;;;;41.13;15.38;100223.60;108165;1253;59508;-68
2023/08/24 09:05:07;;;;;;;3.70;1.30;;;;;;;40.61;15.79;100223.02;108247;1253;59254;-69
2023/08/24 09:07:35;;;;;;;2.40;1.10;;;;;;;40.26;16.28;100222.58;108197;1254;62885;-69
2023/08/24 09:10:03;;;;;;;6.00;1.20;;;;;;;40.10;16.48;100222.19;108184;1254;60745;-69
2023/08/24 09:12:32;;;;;;;4.80;1.70;;;;;;;40.31;16.90;100219.34;108156;1254;63883;-70
2023/08/24 09:14:59;;;;;;;6.20;1.40;;;;;;;40.60;16.49;100220.52;108182;1257;59029;-70
2023/08/24 09:17:26;;;;;;;3.00;1.20;;;;;;;40.93;16.45;100223.34;108210;1254;59288;-69
2023/08/24 09:19:57;;;;;;;4.80;1.30;;;;;;;41.17;16.54;100220.58;108192;1254;63242;-70
2023/08/24 09:22:24;;;;;;;3.40;1.30;;;;;;;41.46;15.86;100214.48;108094;1254;61524;-69
2023/08/24 09:24:50;;;;;;;5.60;1.40;;;;;;;41.57;16.31;100212.14;108216;1254;59662;-69
2023/08/24 09:27:18;;;;;;;3.50;1.30;;;;;;;41.45;16.06;100208.33;108186;1256;59016;-69
2023/08/24 09:29:52;;;;;;;2.30;1.20;;;;;;;41.14;15.75;100207.89;108209;1254;59594;-69
2023/08/24 09:32:29;;;;;;;3.70;1.70;;;;;;;40.87;15.96;100207.31;108171;1257;64118;-69
2023/08/24 09:35:12;;;;;;;3.20;1.50;;;;;;;40.87;16.06;100202.79;108191;1256;60225;-69
2023/08/24 09:37:40;;;;;;;5.40;1.30;;;;;;;40.89;16.06;100201.38;108154;1254;63820;-70
2023/08/24 09:40:07;;;;;;;4.40;1.50;;;;;;;40.78;15.71;100198.11;108037;1254;59404;-69
2023/08/24 09:42:41;;;;;;;3.20;1.40;;;;;;;40.25;15.97;100202.19;108063;1254;59045;-68
2023/08/24 09:45:11;;;;;;;3.00;1.30;;;;;;;39.72;16.65;100205.77;108176;1254;63663;-69
2023/08/24 09:47:38;;;;;;;3.20;1.30;;;;;;;39.47;17.12;100202.21;108168;1254;61409;-69
2023/08/24 09:50:05;;;;;;;2.90;1.10;;;;;;;39.31;17.02;100199.13;108187;1254;63959;-68
2023/08/24 09:52:32;;;;;;;4.10;1.20;;;;;;;39.12;17.03;100194.59;108191;1254;60283;-69
2023/08/24 09:55:07;;;;;;;5.10;1.40;;;;;;;39.20;17.11;100193.16;108235;1254;60394;-69
2023/08/24 09:57:37;;;;;;;4.30;1.60;;;;;;;39.51;17.01;100192.75;108183;1254;65341;-69
2023/08/24 10:00:14;;;;;;;2.00;1.40;;;;;;;39.92;16.87;100192.84;108186;1256;61938;-70
2023/08/24 10:02:48;;;;;;;6.00;1.50;;;;;;;39.69;16.55;100188.40;108134;1254;62790;-70
2023/08/24 10:05:20;;;;;;;3.30;1.30;;;;;;;39.88;16.56;100182.09;108181;1254;59541;-70
2023/08/24 10:08:05;;;;;;;3.60;1.40;;;;;;;40.21;16.46;100181.23;108131;1254;60424;-71
2023/08/24 10:10:32;;;;;;;3.40;1.20;;;;;;;40.55;16.35;100175.13;108051;1254;65025;-69
2023/08/24 10:13:08;;;;;;;3.80;1.60;;;;;;;40.59;16.38;100181.21;107972;1259;60479;-69
2023/08/24 10:15:35;;;;;;;2.30;1.30;;;;;;;39.92;16.70;100182.85;108129;1254;64063;-69
2023/08/24 10:18:02;;;;;;;3.50;1.60;;;;;;;39.59;16.82;100186.29;108092;1254;59013;-70
2023/08/24 10:20:29;;;;;;;6.10;1.60;;;;;;;39.31;16.92;100178.71;108074;1255;60430;-69
2023/08/24 10:22:55;;;;;;;2.80;1.50;;;;;;;39.22;17.31;100176.14;107952;1256;65176;-69
2023/08/24 10:25:23;;;;;;;5.90;1.70;;;;;;;39.22;17.43;100176.20;108225;1254;62072;-70
2023/08/24 10:27:50;;;;;;;2.40;1.40;;;;;;;39.15;17.25;100170.86;107947;1254;63829;-70
2023/08/24 10:30:17;;;;;;;4.30;1.60;;;;;;;39.18;17.39;100169.79;107992;1254;59325;-69
2023/08/24 10:32:45;;;;;;;5.50;1.40;;;;;;;38.89;17.32;100171.23;108103;1254;61117;-69
2023/08/24 10:35:15;;;;;;;4.60;1.70;;;;;;;38.67;17.55;100172.57;108116;1256;64926;-69
2023/08/24 10:37:45;;;;;;;5.00;1.50;;;;;;;38.68;17.38;100169.17;108046;1253;61785;-69
2023/08/24 10:40:11;;;;;;;3.50;1.40;;;;;;;38.29;17.80;100175.46;108118;1253;63885;-69
2023/08/24 10:42:45;;;;;;;8.10;1.60;;;;;;;38.09;18.06;100169.86;108097;1256;60332;-69
2023/08/24 10:45:13;;;;;;;5.60;2.00;;;;;;;37.86;18.36;100168.60;108195;1253;60392;-70
2023/08/24 10:47:46;;;;;;;4.30;2.10;;;;;;;37.65;18.47;100168.98;108103;1253;65261;-69
2023/08/24 10:50:13;;;;;;;3.50;1.50;;;;;;;38.04;18.14;100165.27;108119;1256;61655;-69
2023/08/24 10:52:43;;;;;;;2.90;1.40;;;;;;;38.34;18.20;100157.96;108130;1254;63809;-69
2023/08/24 10:55:26;;;;;;;5.30;1.70;;;;;;;38.64;17.70;100153.66;108087;1254;60961;-70
2023/08/24 10:57:59;;;;;;;5.10;1.90;;;;;;;38.86;17.43;100155.14;108229;1254;60171;-69
2023/08/24 11:00:27;;;;;;;10.60;1.50;;;;;;;39.13;17.47;100156.52;108189;1256;65621;-70
2023/08/24 11:02:57;;;;;;;6.80;1.80;;;;;;;39.04;17.63;100152.85;108199;1254;61686;-71
2023/08/24 11:05:30;;;;;;;3.60;1.50;;;;;;;39.09;17.66;100149.21;108138;1254;63743;-69
2023/08/24 11:08:06;;;;;;;4.20;1.30;;;;;;;39.18;17.90;100147.85;108159;1254;60182;-70
2023/08/24 11:10:42;;;;;;;3.90;1.40;;;;;;;39.28;17.37;100152.14;108050;1254;60351;-69
2023/08/24 11:13:11;;;;;;;3.60;1.50;;;;;;;38.74;17.39;100146.34;108005;1258;63646;-69
2023/08/24 11:15:42;;;;;;;3.60;1.60;;;;;;;38.22;17.85;100141.58;108029;1258;61400;-69
2023/08/24 11:18:15;;;;;;;2.60;1.30;;;;;;;38.06;18.19;100145.83;108043;1254;62452;-69
2023/08/24 11:20:44;;;;;;;4.60;1.60;;;;;;;37.96;18.21;100142.56;108087;1254;60524;-69
2023/08/24 11:23:13;;;;;;;4.00;1.70;;;;;;;37.69;18.02;100139.06;108200;1254;58983;-69